createdAt,value
2023-05-05T00:01:24.298Z,54.41
2023-05-05T00:03:50.851Z,54.33
2023-05-05T00:06:17.400Z,53.65
2023-05-05T00:08:43.879Z,54.86
2023-05-05T00:11:10.351Z,53.97
2023-05-05T00:13:36.846Z,54.62
2023-05-05T00:16:03.965Z,55.33
2023-05-05T00:18:30.422Z,55.60
2023-05-05T00:20:57.035Z,55.69
2023-05-05T00:23:23.478Z,56.50
2023-05-05T00:25:49.971Z,56.72
2023-05-05T00:28:16.445Z,56.79
2023-05-05T00:30:42.936Z,56.31
2023-05-05T00:33:09.581Z,57.94
2023-05-05T00:35:36.071Z,58.34
2023-05-05T00:38:02.995Z,58.84
2023-05-05T00:40:29.573Z,56.49
2023-05-05T00:42:55.991Z,56.62
2023-05-05T00:45:22.661Z,57.37
2023-05-05T00:47:51.566Z,58.60
2023-05-05T00:50:29.062Z,58.18
2023-05-05T00:53:06.740Z,58.13
2023-05-05T00:55:34.505Z,59.54
2023-05-05T00:58:03.035Z,59.40
2023-05-05T01:00:30.913Z,58.78
2023-05-05T01:02:57.514Z,59.28
2023-05-05T01:05:24.789Z,59.19
2023-05-05T01:08:19.492Z,59.45
2023-05-05T01:10:50.285Z,61.40
2023-05-05T01:13:26.623Z,60.48
2023-05-05T01:16:01.611Z,61.44
2023-05-05T01:18:40.580Z,63.23
2023-05-05T01:21:27.064Z,63.54
2023-05-05T01:24:07.942Z,62.95
2023-05-05T01:27:12.049Z,62.80
2023-05-05T01:30:05.688Z,63.59
2023-05-05T01:32:35.762Z,63.63
2023-05-05T01:35:06.329Z,64.66
2023-05-05T01:37:59.107Z,64.32
2023-05-05T01:40:28.289Z,65.29
2023-05-05T01:42:55.575Z,65.42
2023-05-05T01:45:25.365Z,65.99
2023-05-05T01:47:52.789Z,66.48
2023-05-05T01:50:19.596Z,67.11
2023-05-05T01:52:46.743Z,67.76
2023-05-05T01:55:14.897Z,68.17
2023-05-05T01:57:42.565Z,66.88
2023-05-05T02:00:09.870Z,68.37
2023-05-05T02:02:38.922Z,69.46
2023-05-05T02:05:06.677Z,70.67
2023-05-05T02:07:33.874Z,69.03
2023-05-05T02:10:02.778Z,69.77
2023-05-05T02:12:30.312Z,70.50
2023-05-05T02:14:59.249Z,72.03
2023-05-05T02:17:26.403Z,70.74
2023-05-05T02:19:53.233Z,70.90
2023-05-05T02:22:19.779Z,71.14
2023-05-05T02:24:46.340Z,73.11
2023-05-05T02:27:16.463Z,71.07
2023-05-05T02:29:48.016Z,70.94
2023-05-05T02:32:18.638Z,72.67
2023-05-05T02:34:46.455Z,72.91
2023-05-05T02:37:16.030Z,72.89
2023-05-05T02:39:58.658Z,72.90
2023-05-05T02:42:29.035Z,73.14
2023-05-05T02:44:58.829Z,73.96
2023-05-05T02:47:35.667Z,75.02
2023-05-05T02:50:03.411Z,74.71
2023-05-05T02:52:30.070Z,73.92
2023-05-05T02:54:56.571Z,73.62
2023-05-05T02:57:31.153Z,73.57
2023-05-05T03:00:05.985Z,74.20
2023-05-05T03:02:55.888Z,73.58
2023-05-05T03:05:23.952Z,74.40
2023-05-05T03:08:03.403Z,73.39
2023-05-05T03:10:31.459Z,72.61
2023-05-05T03:13:00.125Z,73.47
2023-05-05T03:15:36.693Z,71.88
2023-05-05T03:18:04.076Z,75.08
2023-05-05T03:20:30.720Z,74.69
2023-05-05T03:22:57.263Z,75.24
2023-05-05T03:25:41.443Z,76.00
2023-05-05T03:28:07.934Z,73.56
2023-05-05T03:30:34.404Z,73.93
2023-05-05T03:33:01.093Z,73.68
2023-05-05T03:35:27.971Z,74.00
2023-05-05T03:37:55.687Z,75.39
2023-05-05T03:40:36.380Z,75.68
2023-05-05T03:43:09.872Z,75.38
2023-05-05T03:45:36.339Z,75.70
2023-05-05T03:48:03.195Z,75.83
2023-05-05T03:50:29.668Z,74.75
2023-05-05T03:52:56.252Z,73.47
2023-05-05T03:55:22.792Z,73.89
2023-05-05T03:57:49.254Z,75.00
2023-05-05T04:00:16.059Z,73.71
2023-05-05T04:02:43.671Z,74.72
2023-05-05T04:05:10.297Z,74.68
2023-05-05T04:07:36.754Z,74.31
2023-05-05T04:10:03.313Z,75.48
2023-05-05T04:12:29.885Z,74.62
2023-05-05T04:14:56.367Z,74.88
2023-05-05T04:17:22.823Z,75.23
2023-05-05T04:19:49.392Z,73.94
2023-05-05T04:22:15.907Z,75.52
2023-05-05T04:24:42.374Z,74.38
2023-05-05T04:27:08.827Z,74.36
2023-05-05T04:29:35.313Z,75.20
2023-05-05T04:32:01.760Z,75.48
2023-05-05T04:34:28.283Z,75.20
2023-05-05T04:36:54.745Z,74.84
2023-05-05T04:39:21.595Z,75.39
2023-05-05T04:41:48.054Z,74.31
2023-05-05T04:44:14.542Z,75.41
2023-05-05T04:46:41.479Z,75.65
2023-05-05T04:49:09.190Z,75.28
2023-05-05T04:51:35.661Z,75.14
2023-05-05T04:54:02.176Z,75.36
2023-05-05T04:56:32.010Z,74.83
2023-05-05T04:58:58.615Z,76.79
2023-05-05T05:01:25.263Z,74.93
2023-05-05T05:03:51.780Z,74.70
2023-05-05T05:06:18.335Z,74.95
2023-05-05T05:08:44.829Z,74.86
2023-05-05T05:11:11.280Z,73.67
2023-05-05T05:13:37.795Z,74.97
2023-05-05T05:16:04.419Z,74.48
2023-05-05T05:18:30.894Z,72.70
2023-05-05T05:20:57.314Z,73.07
2023-05-05T05:23:23.852Z,73.99
2023-05-05T05:25:50.753Z,74.34
2023-05-05T05:28:17.210Z,74.79
2023-05-05T05:30:43.644Z,73.60
2023-05-05T05:33:10.790Z,72.88
2023-05-05T05:35:37.433Z,73.05
2023-05-05T05:38:04.006Z,74.18
2023-05-05T05:40:31.517Z,73.46
2023-05-05T05:42:58.078Z,73.40
2023-05-05T05:45:24.547Z,72.49
2023-05-05T05:47:51.111Z,73.94
2023-05-05T05:50:17.719Z,72.08
2023-05-05T05:52:44.187Z,70.96
2023-05-05T05:55:10.694Z,70.06
2023-05-05T05:57:37.144Z,71.40
2023-05-05T06:00:04.013Z,70.10
2023-05-05T06:02:30.662Z,70.88
2023-05-05T06:04:57.180Z,68.05
2023-05-05T06:07:23.677Z,68.42
2023-05-05T06:09:50.613Z,67.75
2023-05-05T06:12:17.118Z,68.30
2023-05-05T06:14:43.729Z,68.96
2023-05-05T06:17:10.270Z,67.72
2023-05-05T06:19:39.760Z,66.53
2023-05-05T06:22:06.362Z,67.88
2023-05-05T06:24:32.931Z,66.54
2023-05-05T06:26:59.431Z,65.88
2023-05-05T06:29:26.299Z,65.43
2023-05-05T06:31:52.830Z,65.53
2023-05-05T06:34:19.399Z,64.98
2023-05-05T06:36:46.041Z,65.03
2023-05-05T06:39:15.298Z,63.93
2023-05-05T06:41:42.471Z,66.03
2023-05-05T06:44:08.950Z,66.49
2023-05-05T06:46:35.574Z,65.89
2023-05-05T06:49:02.106Z,65.68
2023-05-05T06:51:28.553Z,65.29
2023-05-05T06:53:55.019Z,64.24
2023-05-05T06:56:21.594Z,65.54
2023-05-05T06:58:48.147Z,63.87
2023-05-05T07:01:14.663Z,63.20
2023-05-05T07:03:41.209Z,63.25
2023-05-05T07:06:07.838Z,62.92
2023-05-05T07:08:34.347Z,61.49
2023-05-05T07:11:01.201Z,62.28
2023-05-05T07:13:27.747Z,62.16
2023-05-05T07:15:54.273Z,61.09
2023-05-05T07:18:21.146Z,62.58
2023-05-05T07:20:49.154Z,60.82
2023-05-05T07:23:15.607Z,59.72
2023-05-05T07:25:42.198Z,60.60
2023-05-05T07:28:08.741Z,59.00
2023-05-05T07:30:35.259Z,58.98
2023-05-05T07:33:01.813Z,58.36
2023-05-05T07:35:28.541Z,56.61
2023-05-05T07:37:54.985Z,57.39
2023-05-05T07:40:21.668Z,58.12
2023-05-05T07:42:48.208Z,56.39
2023-05-05T07:45:14.665Z,54.75
2023-05-05T07:47:41.191Z,54.79
2023-05-05T07:50:08.612Z,54.79
2023-05-05T07:52:46.820Z,54.11
2023-05-05T07:55:18.163Z,55.81
2023-05-05T07:57:44.628Z,55.75
2023-05-05T08:00:13.288Z,53.97
2023-05-05T08:02:40.325Z,53.47
2023-05-05T08:05:07.520Z,52.12
2023-05-05T08:07:34.320Z,52.71
2023-05-05T08:10:00.828Z,53.78
2023-05-05T08:12:27.299Z,53.58
2023-05-05T08:14:53.782Z,53.23
2023-05-05T08:17:20.336Z,53.12
2023-05-05T08:19:46.881Z,56.43
2023-05-05T08:22:13.398Z,56.46
2023-05-05T08:24:39.830Z,55.84
2023-05-05T08:27:06.356Z,55.76
2023-05-05T08:29:32.814Z,53.77
2023-05-05T08:31:59.303Z,51.74
2023-05-05T08:34:25.841Z,53.73
2023-05-05T08:36:52.288Z,51.96
2023-05-05T08:39:18.771Z,52.43
2023-05-05T08:41:45.271Z,52.63
2023-05-05T08:44:11.965Z,51.06
2023-05-05T08:46:39.170Z,50.12
2023-05-05T08:49:06.195Z,52.61
2023-05-05T08:51:40.415Z,52.30
2023-05-05T08:54:11.615Z,51.84
2023-05-05T08:56:41.878Z,51.49
2023-05-05T08:59:09.142Z,51.69
2023-05-05T09:01:36.305Z,50.77
2023-05-05T09:04:04.390Z,51.84
2023-05-05T09:06:33.771Z,51.14
2023-05-05T09:09:00.987Z,50.12
2023-05-05T09:11:28.105Z,52.11
2023-05-05T09:13:56.125Z,52.64
2023-05-05T09:16:23.076Z,52.51
2023-05-05T09:18:49.650Z,53.42
2023-05-05T09:21:25.109Z,54.05
2023-05-05T09:24:08.173Z,52.86
2023-05-05T09:26:59.186Z,52.57
2023-05-05T09:29:26.578Z,52.99
2023-05-05T09:32:08.984Z,51.47
2023-05-05T09:34:36.206Z,49.19
2023-05-05T09:37:03.435Z,49.36
2023-05-05T09:39:30.043Z,50.47
2023-05-05T09:41:56.557Z,50.88
2023-05-05T09:44:36.729Z,51.38
2023-05-05T09:47:26.112Z,51.93
2023-05-05T09:50:01.901Z,51.28
2023-05-05T09:52:32.083Z,48.63
2023-05-05T09:54:58.576Z,51.08
2023-05-05T09:57:27.294Z,52.10
2023-05-05T09:59:58.927Z,52.43
2023-05-05T10:02:33.441Z,51.95
2023-05-05T10:05:06.665Z,51.09
2023-05-05T10:07:33.242Z,50.98
2023-05-05T10:09:59.689Z,52.35
2023-05-05T10:12:26.976Z,52.29
2023-05-05T10:14:55.892Z,51.14
2023-05-05T10:17:23.350Z,50.91
2023-05-05T10:19:52.699Z,49.99
2023-05-05T10:22:23.442Z,51.55
2023-05-05T10:24:57.912Z,51.61
2023-05-05T10:27:26.079Z,51.24
2023-05-05T10:29:57.808Z,49.97
2023-05-05T10:35:03.249Z,51.64
2023-05-05T10:37:30.928Z,49.94
2023-05-05T10:39:57.827Z,50.69
2023-05-05T10:42:24.371Z,50.82
2023-05-05T10:44:51.410Z,50.82
2023-05-05T10:47:19.300Z,51.85
2023-05-05T10:49:52.943Z,52.26
2023-05-05T10:52:37.319Z,51.72
2023-05-05T10:55:14.357Z,51.87
2023-05-05T10:57:43.092Z,52.41
2023-05-05T11:00:10.920Z,53.15
2023-05-05T11:02:37.550Z,52.65
2023-05-05T11:05:18.086Z,52.57
2023-05-05T11:07:46.491Z,51.88
2023-05-05T11:10:15.032Z,50.20
2023-05-05T11:12:57.874Z,50.01
2023-05-05T11:15:27.930Z,51.26
2023-05-05T11:17:58.499Z,50.63
2023-05-05T11:20:39.436Z,52.42
2023-05-05T11:23:05.928Z,51.83
2023-05-05T11:25:39.018Z,50.88
2023-05-05T11:28:16.338Z,50.17
2023-05-05T11:30:55.184Z,50.99
2023-05-05T11:33:32.852Z,51.64
2023-05-05T11:36:12.283Z,52.24
2023-05-05T11:39:11.869Z,52.21
2023-05-05T11:42:08.022Z,51.08
2023-05-05T11:44:36.221Z,50.60
2023-05-05T11:47:05.893Z,50.13
2023-05-05T11:49:39.389Z,48.35
2023-05-05T11:52:10.463Z,50.00
2023-05-05T11:54:40.469Z,48.48
2023-05-05T11:57:10.302Z,50.18
2023-05-05T11:59:50.230Z,50.53
2023-05-05T12:02:17.898Z,52.79
2023-05-05T12:04:44.534Z,54.27
2023-05-05T12:07:21.822Z,54.36
2023-05-05T12:09:49.083Z,52.27
2023-05-05T12:12:16.508Z,53.65
2023-05-05T12:14:53.253Z,54.64
2023-05-05T12:17:20.809Z,53.96
2023-05-05T12:19:50.346Z,53.48
2023-05-05T12:22:26.945Z,53.15
2023-05-05T12:24:57.732Z,54.69
2023-05-05T12:27:25.212Z,55.10
2023-05-05T12:29:51.927Z,55.15
2023-05-05T12:32:26.079Z,55.17
2023-05-05T12:34:54.411Z,55.03
2023-05-05T12:37:22.070Z,54.08
2023-05-05T12:39:52.283Z,54.31
2023-05-05T12:42:19.204Z,54.93
2023-05-05T12:44:46.717Z,54.45
2023-05-05T12:47:14.162Z,54.47
2023-05-05T12:49:48.670Z,54.83
2023-05-05T12:52:16.279Z,54.33
2023-05-05T12:54:54.835Z,55.11
2023-05-05T12:57:22.374Z,54.94
2023-05-05T12:59:49.414Z,53.31
2023-05-05T13:02:16.515Z,53.47
2023-05-05T13:04:53.534Z,53.72
2023-05-05T13:07:21.720Z,54.88
2023-05-05T13:09:50.963Z,54.63
2023-05-05T13:12:17.976Z,54.93
2023-05-05T13:14:44.734Z,54.68
2023-05-05T13:17:11.839Z,55.63
2023-05-05T13:19:42.785Z,54.68
2023-05-05T13:22:13.178Z,53.45
2023-05-05T13:24:51.003Z,52.82
2023-05-05T13:27:18.601Z,54.46
2023-05-05T13:29:45.127Z,55.28
2023-05-05T13:32:11.713Z,54.32
2023-05-05T13:34:39.256Z,53.31
2023-05-05T13:37:06.129Z,54.77
2023-05-05T13:39:32.761Z,54.74
2023-05-05T13:41:59.274Z,53.92
2023-05-05T13:44:25.749Z,53.93
2023-05-05T13:46:52.388Z,53.95
2023-05-05T13:49:20.028Z,52.99
2023-05-05T13:51:47.182Z,52.37
2023-05-05T13:54:13.962Z,52.02
2023-05-05T13:56:40.474Z,52.86
2023-05-05T13:59:06.964Z,52.43
2023-05-05T14:01:33.487Z,53.55
2023-05-05T14:04:01.449Z,53.91
2023-05-05T14:06:29.393Z,53.95
2023-05-05T14:08:55.940Z,53.96
2023-05-05T14:11:22.926Z,54.75
2023-05-05T14:13:49.746Z,55.38
2023-05-05T14:16:16.618Z,53.38
2023-05-05T14:18:43.188Z,54.57
2023-05-05T14:21:09.785Z,53.53
2023-05-05T14:23:36.307Z,51.70
2023-05-05T14:26:02.870Z,53.65
2023-05-05T14:28:29.325Z,53.68
2023-05-05T14:30:56.408Z,54.17
2023-05-05T14:33:23.014Z,54.44
2023-05-05T14:35:51.671Z,53.84
2023-05-05T14:38:25.356Z,53.95
2023-05-05T14:40:51.908Z,54.39
2023-05-05T14:43:18.412Z,55.30
2023-05-05T14:45:44.956Z,55.45
2023-05-05T14:48:11.541Z,55.56
2023-05-05T14:50:39.925Z,55.99
2023-05-05T14:53:06.422Z,56.27
2023-05-05T14:55:33.043Z,57.02
2023-05-05T14:57:59.549Z,57.68
2023-05-05T15:00:26.900Z,56.05
2023-05-05T15:02:53.623Z,57.11
2023-05-05T15:05:20.274Z,56.40
2023-05-05T15:07:46.781Z,56.40
2023-05-05T15:10:13.218Z,57.84
2023-05-05T15:12:39.711Z,58.25
2023-05-05T15:15:08.667Z,57.74
2023-05-05T15:17:37.471Z,56.22
2023-05-05T15:20:06.213Z,56.38
2023-05-05T15:22:43.196Z,58.23
2023-05-05T15:25:12.481Z,58.73
2023-05-05T15:27:44.060Z,58.07
2023-05-05T15:30:21.808Z,57.92
2023-05-05T15:32:48.337Z,59.41
2023-05-05T15:35:14.831Z,58.23
2023-05-05T15:37:42.873Z,60.17
2023-05-05T15:40:09.886Z,59.40
2023-05-05T15:42:36.579Z,60.57
2023-05-05T15:45:03.449Z,60.33
2023-05-05T15:47:29.924Z,59.28
2023-05-05T15:49:56.574Z,60.28
2023-05-05T15:52:23.038Z,60.37
2023-05-05T15:54:49.543Z,61.17
2023-05-05T15:57:16.459Z,60.20
2023-05-05T15:59:43.012Z,60.87
2023-05-05T16:02:09.482Z,60.41
2023-05-05T16:04:35.951Z,61.21
2023-05-05T16:07:03.383Z,61.08
2023-05-05T16:09:29.902Z,61.59
2023-05-05T16:11:57.028Z,62.00
2023-05-05T16:14:24.102Z,61.74
2023-05-05T16:16:50.693Z,61.75
2023-05-05T16:19:18.134Z,60.42
2023-05-05T16:21:44.874Z,62.14
2023-05-05T16:24:16.030Z,61.26
2023-05-05T16:26:43.554Z,61.93
2023-05-05T16:29:10.532Z,61.32
2023-05-05T16:31:37.084Z,60.88
2023-05-05T16:34:03.872Z,62.29
2023-05-05T16:36:30.357Z,62.62
2023-05-05T16:38:56.855Z,63.29
2023-05-05T16:41:23.802Z,63.08
2023-05-05T16:43:50.433Z,62.30
2023-05-05T16:46:17.022Z,62.99
2023-05-05T16:48:43.649Z,62.42
2023-05-05T16:51:10.140Z,62.83
2023-05-05T16:53:36.638Z,63.47
2023-05-05T16:56:03.324Z,63.40
2023-05-05T16:58:29.810Z,62.63
2023-05-05T17:00:56.258Z,62.18
2023-05-05T17:03:22.791Z,63.12
2023-05-05T17:05:50.470Z,64.67
2023-05-05T17:08:17.254Z,64.94
2023-05-05T17:10:45.328Z,64.35
2023-05-05T17:13:12.957Z,63.91
2023-05-05T17:15:39.596Z,63.48
2023-05-05T17:18:06.804Z,64.26
2023-05-05T17:20:34.413Z,64.19
2023-05-05T17:23:02.204Z,64.12
2023-05-05T17:25:28.812Z,65.06
2023-05-05T17:27:56.182Z,67.28
2023-05-05T17:30:23.410Z,70.53
2023-05-05T17:32:50.040Z,73.98
2023-05-05T17:35:16.650Z,75.87
2023-05-05T17:37:43.197Z,77.54
2023-05-05T17:40:09.904Z,78.69
2023-05-05T17:42:36.432Z,78.73
2023-05-05T17:45:03.362Z,79.74
2023-05-05T17:47:29.999Z,78.54
2023-05-05T17:49:56.914Z,78.83
2023-05-05T17:52:23.850Z,79.52
2023-05-05T17:54:50.702Z,79.17
2023-05-05T17:57:18.373Z,79.56
2023-05-05T17:59:45.078Z,78.80
2023-05-05T18:02:11.560Z,77.64
2023-05-05T18:04:38.030Z,78.92
2023-05-05T18:07:04.880Z,79.34
2023-05-05T18:09:31.350Z,79.81
2023-05-05T18:11:57.822Z,80.65
2023-05-05T18:14:24.598Z,79.56
2023-05-05T18:16:52.403Z,78.85
2023-05-05T18:19:23.127Z,80.78
2023-05-05T18:21:54.464Z,80.49
2023-05-05T18:24:20.969Z,81.03
2023-05-05T18:26:50.196Z,80.09
2023-05-05T18:29:17.881Z,79.01
2023-05-05T18:31:46.094Z,78.62
2023-05-05T18:34:12.594Z,80.61
2023-05-05T18:36:39.267Z,80.78
2023-05-05T18:39:05.772Z,80.41
2023-05-05T18:41:35.711Z,80.90
2023-05-05T18:44:04.611Z,79.20
2023-05-05T18:46:31.266Z,81.38
2023-05-05T18:48:57.823Z,80.68
2023-05-05T18:51:24.954Z,83.58
2023-05-05T18:53:51.424Z,82.84
2023-05-05T18:56:18.569Z,82.24
2023-05-05T18:58:45.044Z,81.79
2023-05-05T19:01:11.524Z,81.49
2023-05-05T19:03:38.124Z,82.30
2023-05-05T19:06:07.850Z,80.72
2023-05-05T19:08:34.462Z,83.78
2023-05-05T19:11:00.974Z,82.28
2023-05-05T19:13:28.171Z,82.10
2023-05-05T19:15:57.071Z,83.85
2023-05-05T19:18:24.216Z,82.86
2023-05-05T19:20:50.734Z,83.12
2023-05-05T19:23:17.193Z,83.54
2023-05-05T19:25:43.896Z,82.01
2023-05-05T19:28:13.670Z,81.97
2023-05-05T19:30:40.117Z,83.45
2023-05-05T19:33:06.703Z,83.94
2023-05-05T19:35:33.220Z,82.55
2023-05-05T19:37:59.785Z,83.36
2023-05-05T19:40:26.252Z,83.46
2023-05-05T19:42:52.811Z,83.44
2023-05-05T19:45:19.345Z,84.40
2023-05-05T19:47:46.235Z,83.22
2023-05-05T19:50:12.841Z,82.91
2023-05-05T19:52:41.385Z,82.76
2023-05-05T19:55:10.351Z,84.42
2023-05-05T19:57:36.937Z,81.29
2023-05-05T20:00:03.761Z,81.70
2023-05-05T20:02:30.525Z,83.65
2023-05-05T20:04:57.984Z,83.83
2023-05-05T20:07:24.470Z,82.04
2023-05-05T20:09:50.942Z,85.46
2023-05-05T20:12:19.532Z,83.21
2023-05-05T20:14:46.074Z,83.45
2023-05-05T20:17:38.952Z,84.80
2023-05-05T20:20:06.153Z,84.85
2023-05-05T20:22:32.731Z,84.32
2023-05-05T20:24:59.256Z,83.34
2023-05-05T20:27:26.726Z,82.60
2023-05-05T20:29:55.094Z,84.18
2023-05-05T20:32:21.594Z,84.48
2023-05-05T20:34:48.199Z,82.69
2023-05-05T20:37:14.721Z,85.22
2023-05-05T20:39:42.312Z,85.55
2023-05-05T20:42:08.745Z,83.86
2023-05-05T20:45:00.860Z,82.42
2023-05-05T20:47:27.345Z,84.46
2023-05-05T20:49:54.279Z,84.55
2023-05-05T20:52:20.852Z,85.62
2023-05-05T20:54:47.337Z,84.85
2023-05-05T20:57:13.797Z,84.80
2023-05-05T20:59:40.266Z,83.91
2023-05-05T21:02:07.420Z,83.67
2023-05-05T21:04:33.954Z,85.32
2023-05-05T21:07:00.594Z,85.11
2023-05-05T21:09:52.311Z,86.29
2023-05-05T21:12:21.785Z,84.75
2023-05-05T21:14:48.233Z,87.52
2023-05-05T21:17:14.678Z,86.16
2023-05-05T21:19:41.242Z,88.59
2023-05-05T21:22:09.672Z,87.43
2023-05-05T21:24:38.266Z,86.97
2023-05-05T21:27:04.797Z,87.97
2023-05-05T21:29:37.415Z,85.43
2023-05-05T21:32:05.127Z,85.03
2023-05-05T21:34:31.622Z,86.31
2023-05-05T21:36:58.155Z,86.15
2023-05-05T21:39:24.828Z,86.89
2023-05-05T21:41:51.612Z,85.29
2023-05-05T21:44:18.069Z,87.21
2023-05-05T21:46:44.690Z,87.39
2023-05-05T21:49:15.606Z,88.57
2023-05-05T21:51:42.662Z,87.39
2023-05-05T21:54:09.255Z,84.37
2023-05-05T21:56:36.915Z,86.09
2023-05-05T21:59:04.745Z,85.62
2023-05-05T22:01:31.852Z,84.11
2023-05-05T22:03:58.761Z,86.11
2023-05-05T22:06:25.358Z,85.96
2023-05-05T22:08:51.813Z,83.45
2023-05-05T22:11:18.807Z,86.17
2023-05-05T22:13:46.358Z,87.35
2023-05-05T22:16:12.905Z,85.90
2023-05-05T22:18:39.403Z,86.25
2023-05-05T22:21:06.133Z,86.54
2023-05-05T22:23:32.653Z,85.09
2023-05-05T22:25:59.177Z,86.65
2023-05-05T22:28:27.017Z,86.10
2023-05-05T22:30:54.024Z,88.04
2023-05-05T22:33:20.509Z,88.85
2023-05-05T22:35:47.060Z,88.17
2023-05-05T22:38:13.606Z,88.77
2023-05-05T22:40:40.195Z,87.20
2023-05-05T22:43:06.737Z,87.94
2023-05-05T22:45:33.286Z,87.83
2023-05-05T22:47:59.850Z,86.58
2023-05-05T22:50:26.354Z,87.87
2023-05-05T22:52:52.830Z,87.21
2023-05-05T22:55:20.308Z,87.94
2023-05-05T22:57:47.383Z,87.00
2023-05-05T23:00:14.604Z,86.30
2023-05-05T23:02:41.595Z,86.05
2023-05-05T23:05:08.681Z,85.91
2023-05-05T23:07:35.402Z,87.13
2023-05-05T23:10:01.918Z,87.44
2023-05-05T23:12:28.538Z,85.32
2023-05-05T23:14:55.038Z,85.71
2023-05-05T23:17:21.523Z,85.38
2023-05-05T23:19:48.501Z,85.58
2023-05-05T23:22:15.085Z,87.22
2023-05-05T23:24:41.729Z,86.81
2023-05-05T23:27:08.216Z,86.52
2023-05-05T23:29:37.671Z,87.16
2023-05-05T23:32:04.884Z,86.30
2023-05-05T23:34:41.305Z,87.80
2023-05-05T23:37:08.592Z,88.11
2023-05-05T23:39:35.247Z,87.89
2023-05-05T23:42:01.814Z,86.16
2023-05-05T23:44:28.418Z,86.95
2023-05-05T23:46:54.951Z,86.21
2023-05-05T23:49:21.523Z,85.49
2023-05-05T23:51:48.029Z,85.28
2023-05-05T23:54:14.522Z,88.09
2023-05-05T23:56:41.178Z,87.31
2023-05-05T23:59:07.869Z,87.23
